Time;durP1;ratioP1;P1;durP2;ratioP2;P2;SDS_P1;SDS_P2;PMS_P1;PMS_P2;Temp;Humidity;BMP_temperature;BMP_pressure;BME280_temperature;BME280_humidity;BME280_pressure;Samples;Min_cycle;Max_cycle;Signal;HPM_P1;HPM_P2
2022/11/28 00:01:50;;;;;;;3.05;0.70;;;;;;;8.46;100.00;101051.91;5012549;28;20137;-72
2022/11/28 00:04:26;;;;;;;4.32;0.55;;;;;;;8.38;100.00;101046.38;5021891;28;20045;-73
2022/11/28 00:06:55;;;;;;;1.80;0.65;;;;;;;8.38;100.00;101043.78;5014048;28;20060;-73
2022/11/28 00:09:26;;;;;;;2.65;0.88;;;;;;;8.39;100.00;101045.56;5015058;28;20050;-72
2022/11/28 00:11:55;;;;;;;3.75;0.77;;;;;;;8.38;100.00;101039.53;5045870;28;20049;-72
2022/11/28 00:14:24;;;;;;;0.68;0.57;;;;;;;8.39;100.00;101041.28;5040761;28;20484;-74
2022/11/28 00:16:52;;;;;;;2.75;1.30;;;;;;;8.41;100.00;101038.81;5040333;28;20487;-75
2022/11/28 00:19:21;;;;;;;3.75;1.30;;;;;;;8.40;100.00;101047.34;5045364;28;20065;-73
2022/11/28 00:21:50;;;;;;;1.63;0.82;;;;;;;8.39;100.00;101050.72;5047406;28;20045;-73
2022/11/28 00:24:19;;;;;;;2.53;1.20;;;;;;;8.35;100.00;101057.44;5036681;28;20041;-73
2022/11/28 00:26:49;;;;;;;3.72;1.30;;;;;;;8.35;100.00;101059.16;5040218;28;20038;-72
2022/11/28 00:29:18;;;;;;;3.13;1.38;;;;;;;8.33;100.00;101068.50;5038801;28;20049;-71
2022/11/28 00:31:47;;;;;;;8.52;1.95;;;;;;;8.32;100.00;101067.63;5039026;28;20099;-80
2022/11/28 00:34:16;;;;;;;6.03;2.25;;;;;;;8.25;100.00;101063.03;5045500;28;20053;-78
2022/11/28 00:36:46;;;;;;;7.25;2.08;;;;;;;8.19;100.00;101058.47;5045769;28;20055;-72
2022/11/28 00:39:16;;;;;;;7.20;2.22;;;;;;;8.18;100.00;101061.88;5048408;28;20566;-73
2022/11/28 00:41:45;;;;;;;3.03;1.83;;;;;;;8.09;100.00;101040.84;5047983;28;20049;-72
2022/11/28 00:44:16;;;;;;;4.57;2.10;;;;;;;8.03;100.00;101045.72;5047472;28;20132;-72
2022/11/28 00:46:45;;;;;;;6.35;1.65;;;;;;;7.98;100.00;101044.66;5046479;28;20056;-72
2022/11/28 00:49:13;;;;;;;3.33;1.63;;;;;;;7.89;100.00;101037.38;5041115;28;20041;-72
2022/11/28 00:51:42;;;;;;;9.05;2.13;;;;;;;7.87;100.00;101038.13;5032538;28;20042;-72
2022/11/28 00:54:13;;;;;;;6.15;1.77;;;;;;;7.91;100.00;101040.03;5033930;28;20055;-73
2022/11/28 00:56:42;;;;;;;6.05;1.88;;;;;;;7.90;100.00;101048.56;5031001;28;20049;-72
2022/11/28 00:59:11;;;;;;;5.68;2.42;;;;;;;7.91;100.00;101042.63;5034148;28;20045;-72
2022/11/28 01:01:43;;;;;;;4.72;1.33;;;;;;;7.90;100.00;101038.25;5030532;28;20120;-73
2022/11/28 01:04:13;;;;;;;6.13;2.35;;;;;;;7.90;100.00;101046.91;5033647;28;20077;-73
2022/11/28 01:06:43;;;;;;;5.72;1.48;;;;;;;7.89;100.00;101047.69;5031270;28;20050;-74
2022/11/28 01:09:14;;;;;;;5.20;1.30;;;;;;;7.88;100.00;101043.38;5033678;28;20061;-74
2022/11/28 01:11:43;;;;;;;3.60;1.50;;;;;;;7.88;100.00;101039.88;5032703;28;20053;-73
2022/11/28 01:14:14;;;;;;;2.92;1.40;;;;;;;7.83;100.00;101046.53;5031758;28;20081;-74
2022/11/28 01:16:44;;;;;;;3.50;1.67;;;;;;;7.75;100.00;101033.31;5032739;28;20045;-73
2022/11/28 01:19:13;;;;;;;6.53;1.88;;;;;;;7.71;100.00;101037.44;5032729;28;20133;-74
2022/11/28 01:21:42;;;;;;;4.55;1.50;;;;;;;7.70;100.00;101030.53;5029069;28;20057;-73
2022/11/28 01:24:11;;;;;;;1.95;1.48;;;;;;;7.68;100.00;101034.72;5022134;28;20046;-73
2022/11/28 01:26:41;;;;;;;3.97;1.30;;;;;;;7.68;100.00;101037.31;5025762;28;20048;-72
2022/11/28 01:29:12;;;;;;;3.63;1.33;;;;;;;7.69;100.00;101036.47;5027087;28;20072;-73
2022/11/28 01:31:41;;;;;;;4.35;1.52;;;;;;;7.72;100.00;101040.91;5033157;28;20121;-73
2022/11/28 01:34:11;;;;;;;3.63;1.52;;;;;;;7.74;100.00;101041.84;5033257;28;20045;-73
2022/11/28 01:36:40;;;;;;;3.63;1.85;;;;;;;7.76;100.00;101041.13;5029219;28;20128;-73
2022/11/28 01:39:09;;;;;;;8.38;2.40;;;;;;;7.76;100.00;101041.13;5033527;28;20066;-74
2022/11/28 01:41:38;;;;;;;4.10;1.98;;;;;;;7.78;100.00;101041.16;5031313;28;20057;-80
2022/11/28 01:44:29;;;;;;;5.90;2.00;;;;;;;7.74;100.00;101032.44;5031315;28;20666;-75
2022/11/28 01:46:58;;;;;;;5.53;1.30;;;;;;;7.64;100.00;101032.81;5036784;28;20045;-75
2022/11/28 01:49:32;;;;;;;3.90;1.25;;;;;;;7.45;100.00;101013.06;5028569;28;20510;-76
2022/11/28 01:52:06;;;;;;;5.80;1.17;;;;;;;7.44;100.00;101031.00;5030936;28;20037;-78
2022/11/28 01:54:36;;;;;;;3.63;1.10;;;;;;;7.37;100.00;101034.13;5031826;28;20085;-77
2022/11/28 01:57:08;;;;;;;5.85;1.77;;;;;;;7.31;100.00;101040.75;5026391;28;20052;-76
2022/11/28 01:59:42;;;;;;;6.15;1.52;;;;;;;7.30;100.00;101038.09;5024569;28;20058;-78
2022/11/28 02:02:18;;;;;;;2.88;1.15;;;;;;;7.33;100.00;101028.84;5027139;28;20049;-77
2022/11/28 02:04:51;;;;;;;3.78;1.25;;;;;;;7.34;100.00;101029.72;5029298;28;20049;-78
2022/11/28 02:07:20;;;;;;;4.78;1.27;;;;;;;7.31;100.00;101020.16;5026615;28;20045;-77
2022/11/28 02:09:48;;;;;;;4.22;1.17;;;;;;;7.29;100.00;101021.78;5020056;28;20061;-77
2022/11/28 02:12:35;;;;;;;2.95;1.10;;;;;;;7.25;100.00;101014.72;5029568;28;20103;-78
2022/11/28 02:15:33;;;;;;;3.95;1.40;;;;;;;7.22;100.00;101009.44;5029419;28;20056;-77
2022/11/28 02:18:27;;;;;;;6.93;0.93;;;;;;;7.27;100.00;101007.94;5020662;28;20157;-76
2022/11/28 02:21:18;;;;;;;2.60;1.13;;;;;;;7.33;100.00;101002.22;5021921;28;20785;-76
2022/11/28 02:24:37;;;;;;;4.78;1.40;;;;;;;7.37;100.00;101003.22;5016004;28;20760;-77
2022/11/28 02:27:37;;;;;;;7.80;1.08;;;;;;;7.37;100.00;101005.81;5022035;28;20049;-77
2022/11/28 02:30:15;;;;;;;4.60;0.93;;;;;;;7.39;100.00;100988.75;5015417;28;20197;-77
2022/11/28 02:33:02;;;;;;;4.13;0.95;;;;;;;7.41;100.00;100984.53;5012268;28;20056;-77
2022/11/28 02:35:44;;;;;;;4.05;0.70;;;;;;;7.40;100.00;100975.94;5016453;28;20134;-76
2022/11/28 02:38:21;;;;;;;1.48;0.73;;;;;;;7.31;100.00;100971.25;5023240;28;20451;-76
2022/11/28 02:40:58;;;;;;;1.35;0.73;;;;;;;7.28;100.00;100958.25;5017522;28;20049;-77
2022/11/28 02:43:34;;;;;;;0.75;0.73;;;;;;;7.26;100.00;100964.09;5023210;28;20570;-71
2022/11/28 02:46:11;;;;;;;3.88;1.00;;;;;;;7.25;100.00;100959.78;5027199;28;20049;-72
2022/11/28 02:48:48;;;;;;;3.35;1.10;;;;;;;7.16;100.00;100939.66;5022531;28;20068;-71
2022/11/28 02:51:22;;;;;;;4.82;0.82;;;;;;;7.20;100.00;100940.69;5022268;28;20053;-71
2022/11/28 02:53:53;;;;;;;1.73;0.90;;;;;;;7.21;100.00;100950.16;5026053;28;20491;-72
2022/11/28 02:56:24;;;;;;;3.85;1.20;;;;;;;7.19;100.00;100952.66;5020505;28;20127;-70
2022/11/28 02:58:53;;;;;;;1.95;0.60;;;;;;;7.17;100.00;100956.88;5024076;28;20053;-71
2022/11/28 03:01:26;;;;;;;3.67;1.00;;;;;;;7.13;100.00;100962.69;5022806;28;20045;-73
2022/11/28 03:04:10;;;;;;;5.03;1.10;;;;;;;7.10;100.00;100953.13;5024136;28;20045;-72
2022/11/28 03:06:50;;;;;;;4.80;1.00;;;;;;;7.08;100.00;100953.88;5025992;28;20051;-82
2022/11/28 03:09:33;;;;;;;8.20;1.42;;;;;;;7.06;100.00;100955.50;5024264;28;20406;-75
2022/11/28 03:12:17;;;;;;;4.75;1.35;;;;;;;6.97;100.00;100939.63;5011349;28;20061;-74
2022/11/28 03:14:52;;;;;;;5.07;1.38;;;;;;;6.85;100.00;100934.75;5025301;28;20503;-75
2022/11/28 03:17:27;;;;;;;4.40;0.90;;;;;;;6.79;100.00;100940.50;5021936;28;20629;-75
2022/11/28 03:20:22;;;;;;;1.77;0.95;;;;;;;6.80;100.00;100942.25;5020811;28;20448;-74
2022/11/28 03:23:05;;;;;;;3.67;1.27;;;;;;;6.82;100.00;100945.78;5018489;28;20049;-74
2022/11/28 03:25:35;;;;;;;;;;;;;;;6.84;100.00;100949.31;5016116;28;20065;-75
2022/11/28 03:28:12;;;;;;;2.47;0.82;;;;;;;6.84;100.00;100959.59;5019336;28;19961;-75
2022/11/28 03:30:46;;;;;;;4.50;0.80;;;;;;;6.83;100.00;100947.56;5017223;28;20052;-75
2022/11/28 03:33:17;;;;;;;2.25;1.20;;;;;;;6.80;100.00;100943.94;5023746;28;20045;-74
2022/11/28 03:35:55;;;;;;;2.90;1.40;;;;;;;6.69;100.00;100941.75;5020993;28;20053;-76
2022/11/28 03:38:29;;;;;;;4.28;1.00;;;;;;;6.78;100.00;100941.31;5026887;28;20067;-75
2022/11/28 03:41:03;;;;;;;6.50;1.50;;;;;;;6.80;100.00;100949.97;5026760;28;20522;-74
2022/11/28 03:43:38;;;;;;;3.55;1.45;;;;;;;6.74;100.00;100923.97;5028808;28;20072;-73
2022/11/28 03:46:14;;;;;;;4.78;1.60;;;;;;;6.64;100.00;100914.94;5030892;28;20045;-80
2022/11/28 03:48:46;;;;;;;2.88;1.30;;;;;;;6.67;100.00;100938.22;5024930;28;20487;-71
2022/11/28 03:51:19;;;;;;;2.10;1.10;;;;;;;6.68;100.00;100931.38;5024174;28;20053;-72
2022/11/28 03:53:54;;;;;;;3.15;1.30;;;;;;;6.66;100.00;100918.44;5025632;28;20046;-71
2022/11/28 03:56:29;;;;;;;3.53;1.58;;;;;;;6.58;100.00;100913.78;5026812;28;20119;-73
2022/11/28 03:59:02;;;;;;;3.15;1.13;;;;;;;6.53;100.00;100916.13;5028712;28;20053;-73
2022/11/28 04:01:37;;;;;;;2.83;1.30;;;;;;;6.52;100.00;100910.91;5022138;28;20053;-70
2022/11/28 04:04:15;;;;;;;2.85;1.13;;;;;;;6.49;100.00;100915.09;5022644;28;20420;-71
2022/11/28 04:06:55;;;;;;;4.00;1.10;;;;;;;6.49;100.00;100902.22;5020323;28;20050;-71
2022/11/28 04:09:37;;;;;;;3.10;1.23;;;;;;;6.50;100.00;100911.72;5025513;28;20053;-71
2022/11/28 04:12:11;;;;;;;2.10;1.20;;;;;;;6.52;100.00;100905.75;5020368;28;20112;-71
2022/11/28 04:14:46;;;;;;;1.98;1.42;;;;;;;6.54;100.00;100906.72;5019816;28;20495;-71
2022/11/28 04:17:20;;;;;;;5.30;1.42;;;;;;;6.53;100.00;100900.69;5027745;28;20483;-72
2022/11/28 04:19:52;;;;;;;4.95;1.30;;;;;;;6.54;100.00;100897.31;5022655;28;20053;-71
2022/11/28 04:22:28;;;;;;;4.32;1.45;;;;;;;6.49;100.00;100896.22;5022577;28;20052;-70
2022/11/28 04:24:59;;;;;;;2.60;1.00;;;;;;;6.41;100.00;100890.69;5025796;28;20822;-72
2022/11/28 04:27:31;;;;;;;6.70;1.17;;;;;;;6.39;100.00;100888.84;5038457;28;20045;-71
2022/11/28 04:30:03;;;;;;;2.42;1.10;;;;;;;6.40;100.00;100895.78;5029680;28;20131;-71
2022/11/28 04:32:34;;;;;;;;;;;;;;;6.39;100.00;100894.00;5025560;28;20053;-70
2022/11/28 04:35:07;;;;;;;2.85;1.10;;;;;;;6.37;100.00;100893.94;5027423;28;19929;-72
2022/11/28 04:37:41;;;;;;;6.50;1.73;;;;;;;6.36;100.00;100887.00;5025941;28;20045;-71
2022/11/28 04:40:13;;;;;;;8.75;2.17;;;;;;;6.36;100.00;100886.13;5029349;28;20053;-71
2022/11/28 04:42:46;;;;;;;9.50;4.43;;;;;;;6.36;100.00;100881.88;5025210;28;20042;-71
2022/11/28 04:45:17;;;;;;;11.85;5.47;;;;;;;6.37;100.00;100882.75;5033598;28;20052;-70
2022/11/28 04:47:46;;;;;;;15.65;3.22;;;;;;;6.35;100.00;100880.13;5027344;28;20054;-72
2022/11/28 04:50:15;;;;;;;4.05;2.40;;;;;;;6.37;100.00;100877.59;5029095;28;20415;-72
2022/11/28 04:52:52;;;;;;;5.15;2.25;;;;;;;6.37;100.00;100880.19;5025047;28;20049;-71
2022/11/28 04:55:30;;;;;;;10.85;2.42;;;;;;;6.34;100.00;100873.22;5023654;28;20041;-71
2022/11/28 04:58:09;;;;;;;10.95;3.22;;;;;;;6.31;100.00;100875.63;5021529;28;20068;-71
2022/11/28 05:00:39;;;;;;;5.18;1.58;;;;;;;6.24;100.00;100871.00;5026227;28;20061;-70
2022/11/28 05:03:08;;;;;;;3.10;1.33;;;;;;;6.13;100.00;100865.34;5026220;28;20053;-70
2022/11/28 05:05:45;;;;;;;3.80;0.98;;;;;;;6.04;100.00;100859.75;5026089;28;20049;-70
2022/11/28 05:08:15;;;;;;;4.43;1.00;;;;;;;5.98;100.00;100865.47;5024216;28;20138;-73
2022/11/28 05:10:44;;;;;;;3.38;1.00;;;;;;;5.98;100.00;100862.00;5022603;28;20097;-72
2022/11/28 05:13:13;;;;;;;7.35;1.20;;;;;;;5.97;100.00;100853.44;5027594;28;20038;-72
2022/11/28 05:15:41;;;;;;;3.60;0.73;;;;;;;5.97;100.00;100843.16;5032659;28;20105;-71
2022/11/28 05:18:10;;;;;;;1.85;0.57;;;;;;;5.99;100.00;100851.81;5030476;28;20045;-72
2022/11/28 05:20:40;;;;;;;1.88;0.82;;;;;;;6.01;100.00;100847.66;5029424;28;20053;-72
2022/11/28 05:23:08;;;;;;;3.92;1.30;;;;;;;6.00;100.00;100840.75;5020944;28;20053;-72
2022/11/28 05:25:40;;;;;;;15.02;4.55;;;;;;;6.03;100.00;100832.31;5021894;28;20068;-71
2022/11/28 05:28:10;;;;;;;5.13;1.42;;;;;;;6.04;100.00;100827.22;5027000;28;20054;-72
2022/11/28 05:30:38;;;;;;;4.43;2.00;;;;;;;6.09;100.00;100835.16;5026907;28;20049;-72
2022/11/28 05:33:07;;;;;;;10.70;3.45;;;;;;;6.15;100.00;100832.03;5028853;28;20262;-71
2022/11/28 05:35:36;;;;;;;57.30;16.52;;;;;;;6.19;100.00;100837.38;5024963;28;20045;-72
2022/11/28 05:38:04;;;;;;;19.25;5.97;;;;;;;6.22;100.00;100847.81;5025331;28;20049;-74
2022/11/28 05:40:33;;;;;;;3.63;1.05;;;;;;;6.24;100.00;100846.19;5028392;28;20491;-71
2022/11/28 05:43:04;;;;;;;3.83;0.88;;;;;;;6.23;100.00;100844.44;5027723;28;20045;-70
2022/11/28 05:45:33;;;;;;;1.60;0.77;;;;;;;6.19;100.00;100833.94;5025831;28;20045;-70
2022/11/28 05:48:01;;;;;;;3.97;0.80;;;;;;;6.20;100.00;100838.25;5025647;28;20041;-72
2022/11/28 05:50:30;;;;;;;1.23;1.02;;;;;;;6.21;100.00;100835.78;5025295;28;20054;-71
2022/11/28 05:52:59;;;;;;;4.32;1.42;;;;;;;6.23;100.00;100813.63;5025746;28;20060;-73
2022/11/28 05:55:27;;;;;;;1.70;1.10;;;;;;;6.27;100.00;100814.63;5026816;28;20053;-72
2022/11/28 05:57:57;;;;;;;2.30;0.93;;;;;;;6.27;100.00;100807.78;5026022;28;20049;-71
2022/11/28 06:00:27;;;;;;;1.33;0.52;;;;;;;6.25;100.00;100801.72;5027634;28;20045;-71
2022/11/28 06:02:56;;;;;;;6.13;1.63;;;;;;;6.24;100.00;100793.94;5024765;28;20051;-73
2022/11/28 06:05:24;;;;;;;2.13;0.70;;;;;;;6.26;100.00;100789.75;5026954;28;20053;-76
2022/11/28 06:07:53;;;;;;;6.50;0.85;;;;;;;6.30;100.00;100799.38;5020658;28;20491;-73
2022/11/28 06:10:22;;;;;;;3.28;0.90;;;;;;;6.31;100.00;100790.84;5027668;28;20046;-73
2022/11/28 06:12:51;;;;;;;3.42;0.68;;;;;;;6.26;100.00;100774.31;5026944;28;20061;-78
2022/11/28 06:15:20;;;;;;;1.83;0.90;;;;;;;6.33;100.00;100784.09;5027936;28;20058;-77
2022/11/28 06:17:51;;;;;;;1.15;0.65;;;;;;;6.34;100.00;100777.25;5028588;28;20045;-78
2022/11/28 06:20:19;;;;;;;2.63;1.08;;;;;;;6.34;100.00;100774.69;5027641;28;20057;-77
2022/11/28 06:22:48;;;;;;;2.17;0.73;;;;;;;6.31;100.00;100772.84;5026419;28;20041;-76
2022/11/28 06:25:17;;;;;;;1.85;0.60;;;;;;;6.32;100.00;100776.28;5023605;28;20059;-77
2022/11/28 06:27:46;;;;;;;8.98;0.82;;;;;;;6.33;100.00;100773.81;5025355;28;20756;-77
2022/11/28 06:30:15;;;;;;;1.30;0.85;;;;;;;6.32;100.00;100779.72;5022204;28;20061;-76
2022/11/28 06:32:44;;;;;;;2.10;0.82;;;;;;;6.29;100.00;100780.47;5025253;28;20041;-76
2022/11/28 06:35:14;;;;;;;2.25;0.90;;;;;;;6.30;100.00;100789.09;5026552;28;20357;-77
2022/11/28 06:37:43;;;;;;;2.75;0.82;;;;;;;6.28;100.00;100780.44;5023236;28;20042;-76
2022/11/28 06:40:12;;;;;;;2.90;1.00;;;;;;;6.26;100.00;100777.78;5025210;28;20062;-77
2022/11/28 06:42:40;;;;;;;5.80;0.60;;;;;;;6.27;100.00;100766.66;5025274;28;20057;-77
2022/11/28 06:45:10;;;;;;;4.65;1.13;;;;;;;6.28;100.00;100754.72;5027394;28;20045;-77
2022/11/28 06:47:39;;;;;;;4.00;0.70;;;;;;;6.29;100.00;100764.19;5021460;28;20505;-76
2022/11/28 06:50:09;;;;;;;5.03;1.13;;;;;;;6.32;100.00;100766.00;5028050;28;20051;-77
2022/11/28 06:52:39;;;;;;;1.85;1.13;;;;;;;6.29;100.00;100754.78;5021346;28;20100;-76
2022/11/28 06:55:08;;;;;;;5.32;0.93;;;;;;;6.26;100.00;100753.78;5020180;28;20550;-77
2022/11/28 06:57:38;;;;;;;2.08;0.88;;;;;;;6.22;100.00;100754.44;5023605;28;20038;-77
2022/11/28 07:00:08;;;;;;;6.07;1.48;;;;;;;6.22;100.00;100759.56;5022438;28;20050;-77
2022/11/28 07:02:36;;;;;;;2.80;0.90;;;;;;;6.24;100.00;100755.38;5024288;28;20488;-77
2022/11/28 07:05:05;;;;;;;2.15;0.90;;;;;;;6.25;100.00;100752.91;5027555;28;20049;-76
2022/11/28 07:07:34;;;;;;;3.65;1.08;;;;;;;6.27;100.00;100758.09;5023036;28;20186;-77
2022/11/28 07:10:05;;;;;;;1.42;1.05;;;;;;;6.27;100.00;100752.94;5024131;28;20053;-78
2022/11/28 07:12:33;;;;;;;5.78;1.27;;;;;;;6.25;100.00;100740.06;5026147;28;20045;-77
2022/11/28 07:15:02;;;;;;;1.92;0.90;;;;;;;6.22;100.00;100739.88;5031896;28;20152;-77
2022/11/28 07:17:38;;;;;;;4.78;1.33;;;;;;;6.16;100.00;100736.16;5023358;28;20045;-76
2022/11/28 07:20:08;;;;;;;4.15;1.15;;;;;;;6.08;100.00;100734.09;5027704;28;20521;-76
2022/11/28 07:22:37;;;;;;;2.78;0.80;;;;;;;5.99;100.00;100714.81;5022212;28;20258;-75
2022/11/28 07:25:08;;;;;;;3.15;0.90;;;;;;;5.93;100.00;100714.47;5016328;28;20058;-75
2022/11/28 07:27:37;;;;;;;0.30;0.30;;;;;;;5.85;100.00;100714.13;5019984;28;20054;-80
2022/11/28 07:30:07;;;;;;;5.80;0.73;;;;;;;5.81;100.00;100705.38;5022544;28;20045;-77
2022/11/28 07:32:36;;;;;;;1.02;0.47;;;;;;;5.82;100.00;100696.03;5022609;28;21248;-76
2022/11/28 07:35:07;;;;;;;3.88;0.98;;;;;;;5.79;100.00;100685.59;5021818;28;20664;-78
2022/11/28 07:37:35;;;;;;;1.45;0.85;;;;;;;5.78;100.00;100683.84;5022303;28;20132;-77
2022/11/28 07:40:07;;;;;;;2.08;0.75;;;;;;;5.76;100.00;100683.75;5018640;28;20054;-76
2022/11/28 07:42:36;;;;;;;2.70;0.80;;;;;;;5.74;100.00;100679.34;5025966;28;20067;-76
2022/11/28 07:45:05;;;;;;;4.57;0.80;;;;;;;5.72;100.00;100663.88;5022315;28;20056;-76
2022/11/28 07:47:35;;;;;;;8.68;0.63;;;;;;;5.71;100.00;100667.25;5019708;28;20077;-78
2022/11/28 07:50:04;;;;;;;1.60;0.43;;;;;;;5.70;100.00;100669.75;5017904;28;20053;-76
2022/11/28 07:52:33;;;;;;;2.47;0.73;;;;;;;5.67;100.00;100680.75;5020624;28;20124;-76
2022/11/28 07:55:02;;;;;;;3.20;0.70;;;;;;;5.65;100.00;100678.09;5017350;28;20061;-79
2022/11/28 07:57:32;;;;;;;2.08;0.65;;;;;;;5.62;100.00;100672.84;5021255;28;20053;-76
2022/11/28 08:00:01;;;;;;;0.50;0.30;;;;;;;5.66;100.00;100682.44;5019083;28;20060;-76
2022/11/28 08:02:31;;;;;;;1.25;0.57;;;;;;;5.62;100.00;100677.97;5019369;28;20077;-78
2022/11/28 08:05:00;;;;;;;1.33;0.43;;;;;;;5.63;100.00;100676.28;5026753;28;20812;-77
2022/11/28 08:07:29;;;;;;;0.38;0.10;;;;;;;5.62;100.00;100670.25;5027325;28;20057;-77
2022/11/28 08:09:58;;;;;;;6.85;0.63;;;;;;;5.65;100.00;100672.97;5017226;28;20046;-77
2022/11/28 08:12:26;;;;;;;3.28;0.73;;;;;;;5.70;100.00;100669.75;5024093;28;20864;-76
2022/11/28 08:14:57;;;;;;;1.63;0.60;;;;;;;5.74;100.00;100669.09;5024099;28;20120;-77
2022/11/28 08:17:25;;;;;;;2.45;0.70;;;;;;;5.77;100.00;100667.56;5026452;28;20064;-77
2022/11/28 08:19:54;;;;;;;0.73;0.40;;;;;;;5.78;100.00;100653.91;5026041;28;20071;-77
2022/11/28 08:22:23;;;;;;;5.28;0.63;;;;;;;5.80;100.00;100654.84;5027317;28;20045;-78
2022/11/28 08:24:52;;;;;;;2.17;1.10;;;;;;;5.77;100.00;100648.69;5027859;28;20065;-77
2022/11/28 08:27:20;;;;;;;1.83;0.65;;;;;;;5.79;100.00;100647.94;5028843;28;20825;-77
2022/11/28 08:29:50;;;;;;;0.40;0.30;;;;;;;5.81;100.00;100654.03;5025273;28;20128;-77
2022/11/28 08:32:20;;;;;;;3.05;0.30;;;;;;;5.82;100.00;100652.38;5028643;28;20057;-78
2022/11/28 08:34:49;;;;;;;0.73;0.10;;;;;;;5.81;100.00;100638.63;5031375;28;20045;-77
2022/11/28 08:37:18;;;;;;;1.75;0.30;;;;;;;5.81;100.00;100650.59;5025444;28;20138;-78
2022/11/28 08:39:47;;;;;;;2.58;0.25;;;;;;;5.83;100.00;100659.25;5025202;28;20045;-77
2022/11/28 08:42:15;;;;;;;2.13;0.73;;;;;;;5.84;100.00;100659.34;5024265;28;20161;-77
2022/11/28 08:44:44;;;;;;;2.78;0.70;;;;;;;5.84;100.00;100649.06;5025909;28;20049;-77
2022/11/28 08:47:12;;;;;;;0.82;0.50;;;;;;;5.87;100.00;100661.16;5027515;28;20042;-77
2022/11/28 08:49:43;;;;;;;1.85;0.40;;;;;;;5.86;100.00;100656.81;5026628;28;20466;-78
2022/11/28 08:52:12;;;;;;;1.17;0.73;;;;;;;5.88;100.00;100662.91;5027043;28;20625;-78
2022/11/28 08:54:40;;;;;;;8.23;0.90;;;;;;;5.88;100.00;100655.22;5025217;28;20056;-78
2022/11/28 08:57:09;;;;;;;1.92;0.45;;;;;;;5.85;100.00;100650.81;5024286;28;20050;-77
2022/11/28 08:59:38;;;;;;;0.90;0.63;;;;;;;5.78;100.00;100653.03;5026745;28;20542;-77
2022/11/28 09:02:07;;;;;;;0.60;0.40;;;;;;;5.74;100.00;100641.72;5025902;28;20088;-77
2022/11/28 09:04:35;;;;;;;4.03;0.38;;;;;;;5.70;100.00;100626.09;5024996;28;20051;-76
2022/11/28 09:07:06;;;;;;;0.73;0.38;;;;;;;5.69;100.00;100619.22;5023041;28;20045;-77
2022/11/28 09:09:35;;;;;;;0.35;0.10;;;;;;;5.67;100.00;100620.00;5027987;28;20538;-77
2022/11/28 09:12:03;;;;;;;0.65;0.52;;;;;;;5.67;100.00;100616.56;5028765;28;20539;-77
2022/11/28 09:14:32;;;;;;;2.95;0.70;;;;;;;5.65;100.00;100607.91;5026703;28;20037;-78
2022/11/28 09:17:01;;;;;;;1.75;0.50;;;;;;;5.61;100.00;100601.78;5027350;28;20048;-78
2022/11/28 09:19:29;;;;;;;2.72;0.45;;;;;;;5.62;100.00;100594.94;5030211;28;20077;-77
2022/11/28 09:21:58;;;;;;;1.00;0.55;;;;;;;5.64;100.00;100604.47;5025617;28;20063;-77
2022/11/28 09:24:28;;;;;;;1.40;0.43;;;;;;;5.58;100.00;100601.63;5025383;28;20529;-76
2022/11/28 09:26:57;;;;;;;2.83;0.52;;;;;;;5.49;100.00;100608.00;5026517;28;20052;-77
2022/11/28 09:29:27;;;;;;;1.15;0.20;;;;;;;5.46;100.00;100613.88;5028701;28;20056;-77
2022/11/28 09:31:55;;;;;;;2.38;0.40;;;;;;;5.47;100.00;100610.50;5030877;28;20041;-77
2022/11/28 09:34:24;;;;;;;0.65;0.10;;;;;;;5.48;100.00;100608.84;5029797;28;20049;-77
2022/11/28 09:36:53;;;;;;;2.20;0.50;;;;;;;5.46;100.00;100603.63;5030629;28;20738;-77
2022/11/28 09:39:21;;;;;;;0.30;0.20;;;;;;;5.47;100.00;100602.78;5030195;28;20053;-77
2022/11/28 09:42:06;;;;;;;1.90;0.43;;;;;;;5.50;100.00;100599.50;5028342;28;20049;-76
2022/11/28 09:44:42;;;;;;;0.38;0.10;;;;;;;5.51;100.00;100597.00;5027132;28;20630;-76
2022/11/28 09:47:19;;;;;;;2.33;0.50;;;;;;;5.52;100.00;100593.66;5025754;28;20060;-76
2022/11/28 09:49:51;;;;;;;1.40;0.45;;;;;;;5.55;100.00;100593.78;5024504;28;20060;-76
2022/11/28 09:52:32;;;;;;;1.42;0.77;;;;;;;5.59;100.00;100597.34;5025766;28;20057;-76
2022/11/28 09:55:19;;;;;;;1.45;0.20;;;;;;;5.61;100.00;100604.34;5031982;28;20067;-77
2022/11/28 09:57:50;;;;;;;0.82;0.50;;;;;;;5.64;100.00;100608.75;5026544;28;20083;-78
2022/11/28 10:00:22;;;;;;;1.60;0.27;;;;;;;5.64;100.00;100612.19;5022437;28;20045;-77
2022/11/28 10:03:11;;;;;;;0.43;0.17;;;;;;;5.65;100.00;100610.50;5024959;28;20136;-77
2022/11/28 10:05:46;;;;;;;0.38;0.20;;;;;;;5.66;100.00;100617.41;5026254;28;20071;-77
2022/11/28 10:08:27;;;;;;;2.25;0.10;;;;;;;5.66;100.00;100618.28;5026126;28;20053;-77
2022/11/28 10:11:03;;;;;;;1.75;0.47;;;;;;;5.67;100.00;100619.16;5027320;28;20080;-77
2022/11/28 10:13:47;;;;;;;1.20;0.30;;;;;;;5.67;100.00;100609.75;5028021;28;20060;-77
2022/11/28 10:16:23;;;;;;;0.52;0.17;;;;;;;5.69;100.00;100607.25;5028436;28;20045;-78
2022/11/28 10:18:55;;;;;;;1.95;0.25;;;;;;;5.71;100.00;100602.22;5028924;28;20057;-78
2022/11/28 10:21:31;;;;;;;2.90;0.30;;;;;;;5.73;100.00;100606.59;5028158;28;20054;-78
2022/11/28 10:24:05;;;;;;;1.10;0.20;;;;;;;5.72;100.00;100597.13;5025891;28;20048;-78
2022/11/28 10:26:37;;;;;;;1.58;0.60;;;;;;;5.66;100.00;100596.88;5027501;28;20041;-78
2022/11/28 10:29:22;;;;;;;6.13;0.43;;;;;;;5.59;100.00;100595.69;5023416;28;20056;-78
2022/11/28 10:31:54;;;;;;;3.28;0.88;;;;;;;5.59;100.00;100590.56;5023382;28;20049;-78
2022/11/28 10:34:30;;;;;;;1.20;0.47;;;;;;;5.63;100.00;100586.44;5021681;28;20049;-78
2022/11/28 10:37:04;;;;;;;1.35;0.65;;;;;;;5.62;100.00;100585.56;5021873;28;20049;-77
2022/11/28 10:39:32;;;;;;;2.20;0.70;;;;;;;5.64;100.00;100589.09;5026011;28;20060;-77
2022/11/28 10:42:14;;;;;;;0.65;0.57;;;;;;;5.60;100.00;100576.91;5025791;28;20045;-77
2022/11/28 10:45:07;;;;;;;2.00;0.90;;;;;;;5.55;100.00;100577.50;5026650;28;20049;-77
2022/11/28 10:47:55;;;;;;;1.60;0.38;;;;;;;5.46;100.00;100568.56;5023276;28;20370;-77
2022/11/28 10:50:32;;;;;;;4.18;0.63;;;;;;;5.42;100.00;100576.03;5027633;28;20049;-77
2022/11/28 10:53:05;;;;;;;0.65;0.40;;;;;;;5.43;100.00;100570.13;5025836;28;20045;-78
2022/11/28 10:55:47;;;;;;;2.05;0.52;;;;;;;5.45;100.00;100571.94;5024754;28;20053;-77
2022/11/28 10:58:22;;;;;;;0.57;0.30;;;;;;;5.52;100.00;100578.25;5019732;28;20054;-77
2022/11/28 11:00:57;;;;;;;0.95;0.50;;;;;;;5.55;100.00;100580.06;5028387;28;20535;-77
2022/11/28 11:03:29;;;;;;;0.68;0.40;;;;;;;5.56;100.00;100585.25;5023100;28;20057;-77
2022/11/28 11:05:58;;;;;;;2.15;0.40;;;;;;;5.57;100.00;100587.03;5025559;28;20083;-79
2022/11/28 11:08:28;;;;;;;0.85;0.60;;;;;;;5.55;100.00;100588.66;5021823;28;20053;-79
2022/11/28 11:11:03;;;;;;;1.13;0.30;;;;;;;5.58;100.00;100593.91;5024276;28;20137;-80
2022/11/28 11:13:33;;;;;;;0.85;0.50;;;;;;;5.54;100.00;100586.88;5025211;28;20099;-81
2022/11/28 11:16:06;;;;;;;5.35;0.57;;;;;;;5.54;100.00;100589.44;5023736;28;20055;-83
2022/11/28 11:18:37;;;;;;;3.38;0.65;;;;;;;5.49;100.00;100593.47;5028345;28;20045;-81
2022/11/28 11:21:14;;;;;;;1.80;1.15;;;;;;;5.47;100.00;100589.97;5027609;28;20091;-83
2022/11/28 11:23:43;;;;;;;2.40;0.80;;;;;;;5.42;100.00;100582.03;5022111;28;20045;-81
2022/11/28 11:26:24;;;;;;;2.78;0.70;;;;;;;5.44;100.00;100587.25;5029425;28;20049;-80
2022/11/28 11:28:53;;;;;;;0.73;0.22;;;;;;;5.43;100.00;100590.66;5021014;28;20049;-80
2022/11/28 11:31:28;;;;;;;0.73;0.28;;;;;;;5.41;100.00;100592.25;5025008;28;20049;-80
2022/11/28 11:34:05;;;;;;;0.30;0.20;;;;;;;5.41;100.00;100580.31;5025760;28;20041;-80
2022/11/28 11:36:36;;;;;;;0.22;0.20;;;;;;;5.43;100.00;100590.66;5028982;28;20100;-80
2022/11/28 11:39:25;;;;;;;1.95;0.30;;;;;;;5.48;100.00;100594.31;5029642;28;20212;-80
2022/11/28 11:42:11;;;;;;;0.47;0.38;;;;;;;5.52;100.00;100605.56;5021098;28;20049;-81
2022/11/28 11:44:40;;;;;;;2.05;0.50;;;;;;;5.53;100.00;100594.53;5023330;28;20051;-80
2022/11/28 11:47:11;;;;;;;1.08;0.50;;;;;;;5.52;100.00;100603.00;5023724;28;20064;-81
2022/11/28 11:49:41;;;;;;;0.50;0.30;;;;;;;5.50;100.00;100600.41;5022084;28;20045;-83